Terminal Aerodrome Forecast
Issued by NWS

Home | Current Version | Previous Version | Text Only | Print | Product List | Glossary Off
Versions: 1 2 3 4 5 6 7 8 9 10 11 12 13 14

000
FTUS43 KICT 191739
TAFSLN
TAF
KSLN 191739Z 1918/2018 17014G20KT P6SM OVC007
     FM200300 16014G20KT 4SM -SHRA BR VCTS OVC010CB
     FM201300 19013KT P6SM OVC014=

USA.gov is the U.S. government's official web portal to all federal, state and local government web resources and services.